createdAt,value
2022-12-16T00:04:06.619Z,24.60
2022-12-16T00:09:07.737Z,23.30
2022-12-16T00:14:07.607Z,23.60
2022-12-16T00:19:07.190Z,24.00
2022-12-16T00:24:08.290Z,23.00
2022-12-16T00:29:09.751Z,22.80
2022-12-16T00:34:10.896Z,22.90
2022-12-16T00:39:12.021Z,22.60
2022-12-16T00:44:13.194Z,19.50
2022-12-16T00:49:14.366Z,19.70
2022-12-16T00:54:15.513Z,18.60
2022-12-16T00:59:16.678Z,17.90
2022-12-16T01:04:17.871Z,17.10
2022-12-16T01:09:19.012Z,16.50
2022-12-16T01:14:20.187Z,16.50
2022-12-16T01:19:22.303Z,14.40
2022-12-16T01:24:21.446Z,14.80
2022-12-16T01:29:22.623Z,14.90
2022-12-16T01:34:23.855Z,15.30
2022-12-16T01:39:25.004Z,14.70
2022-12-16T01:44:26.287Z,13.60
2022-12-16T01:49:27.380Z,14.90
2022-12-16T01:54:28.508Z,13.10
2022-12-16T01:59:29.753Z,16.50
2022-12-16T02:04:29.895Z,13.30
2022-12-16T02:09:31.085Z,15.30
2022-12-16T02:14:32.275Z,14.20
2022-12-16T02:19:33.422Z,14.40
2022-12-16T02:24:34.659Z,13.20
2022-12-16T02:29:35.792Z,13.90
2022-12-16T02:34:36.970Z,13.10
2022-12-16T02:39:39.147Z,13.80
2022-12-16T02:44:38.344Z,12.60
2022-12-16T02:49:40.525Z,13.30
2022-12-16T02:54:40.650Z,12.70
2022-12-16T02:59:39.794Z,11.90
2022-12-16T03:04:40.952Z,12.30
2022-12-16T03:09:42.156Z,11.80
2022-12-16T03:14:43.311Z,12.10
2022-12-16T03:19:44.454Z,11.50
2022-12-16T03:24:45.593Z,12.30
2022-12-16T03:29:46.837Z,10.40
2022-12-16T03:34:48.041Z,9.20
2022-12-16T03:39:49.185Z,11.80
2022-12-16T03:44:54.246Z,9.70
2022-12-16T03:49:50.365Z,9.90
2022-12-16T03:54:51.631Z,10.20
2022-12-16T03:59:52.851Z,10.10
2022-12-16T04:04:53.994Z,10.30
2022-12-16T04:09:55.515Z,9.80
2022-12-16T04:14:54.723Z,9.80
2022-12-16T04:19:56.876Z,10.90
2022-12-16T04:24:56.126Z,10.60
2022-12-16T04:29:57.363Z,10.80
2022-12-16T04:34:58.602Z,10.00
2022-12-16T04:40:01.832Z,11.10
2022-12-16T04:45:00.987Z,11.70
2022-12-16T04:50:03.103Z,12.20
2022-12-16T04:55:03.239Z,11.50
2022-12-16T05:00:01.394Z,11.40
2022-12-16T05:05:02.603Z,10.00
2022-12-16T05:10:03.744Z,11.20
2022-12-16T05:15:04.908Z,9.50
2022-12-16T05:20:06.074Z,12.20
2022-12-16T05:25:07.197Z,13.60
2022-12-16T05:30:08.370Z,13.50
2022-12-16T05:35:09.489Z,9.80
2022-12-16T05:40:10.735Z,13.20
2022-12-16T05:45:11.901Z,10.90
2022-12-16T05:50:13.097Z,17.90
2022-12-16T05:55:14.240Z,12.90
2022-12-16T06:00:15.432Z,14.40
2022-12-16T06:05:16.644Z,15.30
2022-12-16T06:10:17.834Z,12.40
2022-12-16T06:15:18.989Z,13.70
2022-12-16T06:20:20.202Z,13.60
2022-12-16T06:25:21.358Z,15.00
2022-12-16T06:30:22.518Z,26.10
2022-12-16T06:35:23.682Z,12.60
2022-12-16T06:40:24.830Z,12.70
2022-12-16T06:45:30.085Z,14.30
2022-12-16T06:50:25.935Z,25.00
2022-12-16T06:55:27.094Z,13.10
2022-12-16T07:00:28.263Z,9.40
2022-12-16T07:05:29.426Z,9.00
2022-12-16T07:10:30.647Z,10.30
2022-12-16T07:15:31.837Z,9.30
2022-12-16T07:20:33.034Z,11.10
2022-12-16T07:25:34.205Z,10.80
2022-12-16T07:30:35.429Z,10.50
2022-12-16T07:35:36.636Z,12.40
2022-12-16T07:40:37.876Z,9.90
2022-12-16T07:45:44.772Z,11.40
2022-12-16T07:50:44.045Z,12.90
2022-12-16T07:55:39.289Z,10.10
2022-12-16T08:00:40.845Z,13.50
2022-12-16T08:05:40.076Z,10.10
2022-12-16T08:10:41.288Z,9.80
2022-12-16T08:15:42.497Z,9.50
2022-12-16T08:20:44.673Z,11.50
2022-12-16T08:25:43.833Z,10.30
2022-12-16T08:30:45.131Z,10.50
2022-12-16T08:35:46.393Z,10.70
2022-12-16T08:40:47.639Z,9.50
2022-12-16T08:45:48.853Z,10.90
2022-12-16T08:50:50.074Z,9.80
2022-12-16T08:55:51.327Z,13.30
2022-12-16T09:00:49.954Z,10.90
2022-12-16T09:05:51.234Z,11.40
2022-12-16T09:10:52.400Z,11.70
2022-12-16T09:15:52.489Z,14.90
2022-12-16T09:20:54.675Z,15.40
2022-12-16T09:25:55.898Z,12.50
2022-12-16T09:30:55.583Z,10.10
2022-12-16T09:35:55.465Z,10.80
2022-12-16T09:40:54.781Z,12.00
2022-12-16T09:45:54.225Z,13.90
2022-12-16T09:50:56.332Z,16.10
2022-12-16T09:55:55.463Z,15.80
2022-12-16T10:00:58.657Z,14.20
2022-12-16T10:05:57.855Z,17.00
2022-12-16T10:10:59.010Z,23.00
2022-12-16T10:16:00.221Z,20.70
2022-12-16T10:21:01.427Z,16.10
2022-12-16T10:26:02.596Z,18.70
2022-12-16T10:31:03.834Z,16.00
2022-12-16T10:36:05.029Z,16.80
2022-12-16T10:41:08.126Z,18.90
2022-12-16T10:46:07.413Z,20.30
2022-12-16T10:51:08.152Z,19.40
2022-12-16T10:56:08.185Z,16.80
2022-12-16T11:01:07.698Z,20.80
2022-12-16T11:06:08.843Z,18.60
2022-12-16T11:11:10.302Z,20.50
2022-12-16T11:16:11.571Z,17.50
2022-12-16T11:21:15.772Z,18.10
2022-12-16T11:26:14.144Z,19.40
2022-12-16T11:31:15.297Z,20.00
2022-12-16T11:36:16.510Z,19.70
2022-12-16T11:41:17.713Z,21.60
2022-12-16T11:46:18.954Z,20.70
2022-12-16T11:51:20.138Z,21.90
2022-12-16T11:56:21.364Z,21.00
2022-12-16T12:01:22.656Z,23.60
2022-12-16T12:06:23.815Z,26.10
2022-12-16T12:11:25.013Z,19.30
2022-12-16T12:16:25.260Z,19.70
2022-12-16T12:21:26.512Z,20.70
2022-12-16T12:26:28.690Z,26.30
2022-12-16T12:31:27.957Z,27.30
2022-12-16T12:36:32.112Z,22.20
2022-12-16T12:41:29.256Z,21.50
2022-12-16T12:46:30.526Z,20.60
2022-12-16T12:51:31.628Z,17.80
2022-12-16T12:56:32.820Z,19.50
2022-12-16T13:01:34.139Z,19.80
2022-12-16T13:06:35.378Z,17.20
2022-12-16T13:11:36.560Z,24.40
2022-12-16T13:16:37.764Z,25.00
2022-12-16T13:21:38.920Z,26.60
2022-12-16T13:26:40.080Z,22.10
2022-12-16T13:31:41.239Z,22.10
2022-12-16T13:36:42.380Z,23.30
2022-12-16T13:41:43.568Z,21.90
2022-12-16T13:46:43.699Z,20.10
2022-12-16T13:51:44.901Z,22.90
2022-12-16T13:56:46.054Z,21.70
2022-12-16T14:01:47.342Z,23.30
2022-12-16T14:06:48.576Z,21.90
2022-12-16T14:11:50.734Z,22.80
2022-12-16T14:16:49.941Z,22.90
2022-12-16T14:21:51.142Z,25.40
2022-12-16T14:26:52.272Z,26.00
2022-12-16T14:31:54.547Z,29.20
2022-12-16T14:36:53.725Z,28.40
2022-12-16T14:41:54.854Z,25.00
2022-12-16T14:46:56.014Z,26.50
2022-12-16T14:51:57.170Z,24.20
2022-12-16T14:56:58.374Z,30.40
2022-12-16T15:01:59.685Z,30.00
2022-12-16T15:06:59.001Z,26.10
2022-12-16T15:12:01.149Z,26.20
2022-12-16T15:17:00.368Z,28.70
2022-12-16T15:22:01.529Z,28.40
2022-12-16T15:27:02.670Z,30.90
2022-12-16T15:32:03.682Z,31.30
2022-12-16T15:37:05.037Z,28.70
2022-12-16T15:42:06.221Z,29.10
2022-12-16T15:47:07.521Z,28.30
2022-12-16T15:52:08.706Z,29.90
2022-12-16T15:57:09.867Z,30.50
2022-12-16T16:02:10.209Z,32.50
2022-12-16T16:07:11.448Z,35.60
2022-12-16T16:12:12.615Z,33.00
2022-12-16T16:17:13.792Z,38.30
2022-12-16T16:22:14.931Z,31.60
2022-12-16T16:27:16.142Z,35.20
2022-12-16T16:32:17.285Z,34.70
2022-12-16T16:37:18.420Z,34.50
2022-12-16T16:42:19.607Z,37.40
2022-12-16T16:47:21.746Z,32.50
2022-12-16T16:52:20.909Z,32.00
2022-12-16T16:57:22.131Z,33.40
2022-12-16T17:02:24.513Z,34.90
2022-12-16T17:07:23.835Z,31.00
2022-12-16T17:12:25.023Z,35.70
2022-12-16T17:17:26.163Z,36.80
2022-12-16T17:22:27.365Z,38.60
2022-12-16T17:27:28.518Z,36.20
2022-12-16T17:32:29.681Z,36.30
2022-12-16T17:37:30.907Z,45.10
2022-12-16T17:42:32.210Z,42.10
2022-12-16T17:47:33.350Z,45.30
2022-12-16T17:52:34.637Z,32.90
2022-12-16T17:57:35.916Z,40.30
2022-12-16T18:02:37.215Z,37.10
2022-12-16T18:07:38.523Z,38.90
2022-12-16T18:12:39.750Z,38.60
2022-12-16T18:17:41.107Z,40.20
2022-12-16T18:22:46.403Z,39.30
2022-12-16T18:27:43.867Z,41.80
2022-12-16T18:32:43.449Z,33.70
2022-12-16T18:37:43.330Z,36.70
2022-12-16T18:42:42.852Z,39.90
2022-12-16T18:47:42.305Z,37.20
2022-12-16T18:52:41.692Z,39.90
2022-12-16T18:57:42.893Z,41.60
2022-12-16T19:02:44.232Z,42.20
2022-12-16T19:07:45.522Z,36.10
2022-12-16T19:12:46.740Z,39.50
2022-12-16T19:17:48.041Z,37.30
2022-12-16T19:22:49.447Z,35.30
2022-12-16T19:27:49.663Z,35.40
2022-12-16T19:32:48.881Z,39.60
2022-12-16T19:37:50.032Z,36.10
2022-12-16T19:42:51.290Z,36.70
2022-12-16T19:47:51.646Z,38.10
2022-12-16T19:52:51.699Z,35.20
2022-12-16T19:57:51.658Z,37.20
2022-12-16T20:02:51.210Z,36.00
2022-12-16T20:07:51.663Z,37.40
2022-12-16T20:12:51.651Z,36.30
2022-12-16T20:17:51.692Z,39.80
2022-12-16T20:22:52.135Z,36.20
2022-12-16T20:27:51.601Z,37.10
2022-12-16T20:32:53.493Z,38.80
2022-12-16T20:37:53.690Z,32.70
2022-12-16T20:42:53.637Z,37.60
2022-12-16T20:47:56.307Z,37.40
2022-12-16T20:52:56.529Z,37.90
2022-12-16T20:57:56.190Z,40.70
2022-12-16T21:02:55.984Z,38.30
2022-12-16T21:07:56.675Z,41.00
2022-12-16T21:12:57.219Z,42.90
2022-12-16T21:17:56.739Z,41.50
2022-12-16T21:22:58.191Z,41.40
2022-12-16T21:27:58.359Z,45.10
2022-12-16T21:32:57.576Z,42.00
2022-12-16T21:37:58.776Z,42.30
2022-12-16T21:43:00.002Z,39.80
2022-12-16T21:48:01.235Z,36.10
2022-12-16T21:53:02.407Z,40.50
2022-12-16T21:58:03.567Z,39.40
2022-12-16T22:03:05.020Z,37.70
2022-12-16T22:08:06.198Z,39.70
2022-12-16T22:13:07.408Z,42.70
2022-12-16T22:18:07.592Z,37.20
2022-12-16T22:23:08.826Z,34.60
2022-12-16T22:28:08.809Z,39.80
2022-12-16T22:33:08.783Z,38.20
2022-12-16T22:38:09.799Z,37.60
2022-12-16T22:43:08.928Z,38.20
2022-12-16T22:48:09.413Z,41.80
2022-12-16T22:53:09.566Z,50.60
2022-12-16T22:58:09.651Z,48.70
2022-12-16T23:03:08.873Z,48.30
2022-12-16T23:08:09.745Z,43.00
2022-12-16T23:13:19.905Z,40.00
2022-12-16T23:18:10.403Z,42.40
2022-12-16T23:23:09.623Z,37.90
2022-12-16T23:28:10.927Z,40.30
2022-12-16T23:33:12.211Z,40.90
2022-12-16T23:38:13.383Z,36.60
2022-12-16T23:43:14.608Z,36.90
2022-12-16T23:48:15.737Z,36.60
2022-12-16T23:53:17.824Z,39.80
2022-12-16T23:58:16.905Z,39.80
